Share

Kobuk Valley National Park, AK

9:49 PM AKDT op 23 april 2014 (GMT -0800)
Baker Memorial (PAIK) Hoogte 151 ft | 66.98 °N, 160.44 °W | Change Station

Current weather conditions updated 48 minutes ago

Clear
Helder
45 °F
Voelt als 45 °F
N
0
Wind Variabel Wind van noord
Zonsopkomst 6:17 AM
Zonsondergang 11:04 PM
Maan Afnemende halvemaan

Er wordt verwacht dat het morgen veel koeler is dan vandaag.

Druk 29.87 inches
Zicht 10.0 mijlen
Wolken Helder
Dauwpunt 29 °F
Vochtigheid 53%
Neerslag 0.00 inches
Dikte sneeuw Niet beschikbaar.
UV 0 van de 16
Pollen Niet beschikbaar.
Luchtkwaliteit Niet beschikbaar.
Flu Activity Sporadic
METAR PAIK 240501Z AUTO 00000KT 10SM CLR 07/M02 A2975 RMK AO2 SLP115 T00721017

More Conditions Fewer Conditions

Druk 29.87 inches
Zicht 10.0 mijlen
Wolken Helder
Dauwpunt 29 °F
Vochtigheid 53%
Neerslag 0.00 inches
Dikte sneeuw Niet beschikbaar.
UV 0 van de 16
Pollen Niet beschikbaar.
Luchtkwaliteit Niet beschikbaar.
Flu Activity Sporadic
METAR PAIK 240501Z AUTO 00000KT 10SM CLR 07/M02 A2975 RMK AO2 SLP115 T00721017

More Conditions Fewer Conditions

10-Day Weather Forecast

Almanac

Astronomie

Apr. 23, 2014 Opkomst Ondergang
Werkelijke tijd 6:17 AM AKDT 11:04 PM AKDT
Burgerlijke schemering 4:58 AM AKDT 12:25 AM AKDT
Nautische schemering 3:12 AM AKDT Sun does not rise
Astronomische schemering Sun does not rise Sun does not rise
Maan 5:42 AM AKDT (4/23) 2:49 PM AKDT (4/23)
Golflengte van het zichtbare licht 19h 27m
Daglengte
16h 47m
Tomorrow will be 8m 23s longer.
Afnemende halvemaan, 29% of the Moon is Illuminated
apr 24
Afnemende halvemaan
apr 29
Nieuw
mei 6
Eerste kwartier
mei 14
Volle maan
mei 21
Laatste kwartier

Extremen gisteren

State Highs State Lows

Community

  • Stacked
    Stacked
  • clouds approaching Red Sox Nation
    clouds approaching Red Sox Nation
  • Balance
    Balance
  • Nestled In
    Nestled In
  • Stunning Sunrise
    Stunning Sunrise

WunderPhotos

Upload Photos

1,704,572 foto’s ge-upload!

WunderBlogs® & News

Nearby

Luchtkwaliteit

Not available.

Dikte sneeuw

Station Depth Geometrische hoogte
Rocky Point 1 in 500 ft
Gobblers Knob 6 in 2030 ft
Coldfoot 21 in 1040 ft
Atigun Pass 37 in 4800 ft
Imnaviat Creek 26 in 3050 ft

Watertemperatuur langs de kust

Plaats Temperatuur
Geen meldingen van stations

Aardbevingen

Stad Distance Mag. Time & Date
No recent earthquake activity has been reported nearby.
Minimum magnitude displayed is 2.5.

Nabije weerstations

Geen persoonlijke weerstations in dit gebied.

What do you think?

We're not finished. Please let us know what you like, what you don't like, and what you are still missing.